Terminal Aerodrome Forecast
Issued by NWS Midland/Odessa, TX

Current Version | Previous Version | Text Only | Print | Product List | Glossary On
Versions: 1 2 3 4 5 6 7 8 9 10 11 12 13 14 15 16
000
FTUS44 KMAF 310600 AAA
TAFMAF
TAF AMD
KMAF 310647Z 3107/0106 04011KT P6SM FEW200
     FM311200 06011KT P6SM SKC
     FM010000 09008KT P6SM FEW200=

USA.gov is the U.S. government's official web portal to all federal, state and local government web resources and services.